createdAt,value
2018-06-09T00:00:35.722Z,18.43
2018-06-09T00:01:36.228Z,18.44
2018-06-09T00:02:35.949Z,18.43
2018-06-09T00:03:36.217Z,18.44
2018-06-09T00:04:35.962Z,18.43
2018-06-09T00:05:36.711Z,18.40
2018-06-09T00:06:36.299Z,18.35
2018-06-09T00:07:36.041Z,18.35
2018-06-09T00:08:35.616Z,18.37
2018-06-09T00:09:36.055Z,18.35
2018-06-09T00:10:35.835Z,18.33
2018-06-09T00:11:36.287Z,18.29
2018-06-09T00:12:36.163Z,18.26
2018-06-09T00:13:35.956Z,18.25
2018-06-09T00:15:39.740Z,18.23
2018-06-09T00:16:40.841Z,18.20
2018-06-09T00:17:40.686Z,18.16
2018-06-09T00:18:40.274Z,18.13
2018-06-09T00:19:41.001Z,18.11
2018-06-09T00:20:40.698Z,18.10
2018-06-09T00:21:40.400Z,18.04
2018-06-09T00:22:41.090Z,18.03
2018-06-09T00:23:40.856Z,18.04
2018-06-09T00:24:40.557Z,18.01
2018-06-09T00:25:40.257Z,18.00
2018-06-09T00:26:41.099Z,17.95
2018-06-09T00:27:40.917Z,17.90
2018-06-09T00:28:40.822Z,17.86
2018-06-09T00:29:40.557Z,17.85
2018-06-09T00:30:40.458Z,17.85
2018-06-09T00:31:40.023Z,17.85
2018-06-09T00:32:40.604Z,17.80
2018-06-09T00:33:40.333Z,17.78
2018-06-09T00:34:39.988Z,17.79
2018-06-09T00:35:40.373Z,17.78
2018-06-09T00:36:40.160Z,17.76
2018-06-09T00:38:02.902Z,17.74
2018-06-09T00:39:03.768Z,17.71
2018-06-09T00:40:03.630Z,17.68
2018-06-09T00:41:03.365Z,17.68
2018-06-09T00:42:03.200Z,17.68
2018-06-09T00:43:03.204Z,17.67
2018-06-09T00:44:02.907Z,17.64
2018-06-09T00:45:03.628Z,17.60
2018-06-09T00:46:03.603Z,17.60
2018-06-09T00:47:03.407Z,17.63
2018-06-09T00:48:03.207Z,17.64
2018-06-09T00:49:03.685Z,17.60
2018-06-09T00:50:03.184Z,17.56
2018-06-09T00:51:03.325Z,17.54
2018-06-09T00:52:03.332Z,17.52
2018-06-09T00:53:03.173Z,17.52
2018-06-09T00:54:02.748Z,17.52
2018-06-09T00:55:04.230Z,17.52
2018-06-09T00:56:03.118Z,17.54
2018-06-09T00:57:03.023Z,17.51
2018-06-09T00:58:25.011Z,17.54
2018-06-09T00:59:25.872Z,17.52
2018-06-09T01:00:28.506Z,17.46
2018-06-09T01:01:53.774Z,17.44
2018-06-09T01:02:46.678Z,17.39
2018-06-09T01:04:08.071Z,17.31
2018-06-09T01:05:09.122Z,17.27
2018-06-09T01:06:31.471Z,17.26
2018-06-09T01:07:32.272Z,17.22
2018-06-09T01:08:31.802Z,17.20
2018-06-09T01:09:33.491Z,17.20
2018-06-09T01:10:32.191Z,17.22
2018-06-09T01:11:32.131Z,17.22
2018-06-09T01:12:31.504Z,17.16
2018-06-09T01:13:55.150Z,17.16
2018-06-09T01:14:55.565Z,17.16
2018-06-09T01:15:56.461Z,17.16
2018-06-09T01:16:56.472Z,17.16
2018-06-09T01:17:57.397Z,17.20
2018-06-09T01:18:54.962Z,17.22
2018-06-09T01:19:55.971Z,17.20
2018-06-09T01:20:55.060Z,17.19
2018-06-09T01:21:55.851Z,17.14
2018-06-09T01:22:56.431Z,17.12
2018-06-09T01:23:55.354Z,17.14
2018-06-09T01:24:56.554Z,17.15
2018-06-09T01:26:17.748Z,17.12
2018-06-09T01:27:18.854Z,17.11
2018-06-09T01:28:18.728Z,17.08
2018-06-09T01:29:18.148Z,17.04
2018-06-09T01:30:17.956Z,17.04
2018-06-09T01:31:17.948Z,17.05
2018-06-09T01:32:18.035Z,17.08
2018-06-09T01:33:17.468Z,17.08
2018-06-09T01:34:18.664Z,17.08
2018-06-09T01:35:20.972Z,17.04
2018-06-09T01:36:20.518Z,17.02
2018-06-09T01:37:40.141Z,17.04
2018-06-09T01:38:40.830Z,16.99
2018-06-09T01:39:40.721Z,16.93
2018-06-09T01:40:40.683Z,16.87
2018-06-09T01:42:02.025Z,16.78
2018-06-09T01:43:02.887Z,16.76
2018-06-09T01:44:24.154Z,16.78
2018-06-09T01:45:25.083Z,16.78
2018-06-09T01:46:25.857Z,16.76
2018-06-09T01:47:24.474Z,16.78
2018-06-09T01:48:24.458Z,16.74
2018-06-09T01:49:24.171Z,16.74
2018-06-09T01:50:25.154Z,16.76
2018-06-09T01:51:24.588Z,16.72
2018-06-09T01:52:24.618Z,16.74
2018-06-09T01:53:24.388Z,16.72
2018-06-09T01:54:24.069Z,16.71
2018-06-09T01:55:24.495Z,16.71
2018-06-09T01:56:23.928Z,16.71
2018-06-09T01:57:25.271Z,16.74
2018-06-09T01:58:25.265Z,16.72
2018-06-09T01:59:24.982Z,16.75
2018-06-09T02:00:25.625Z,16.79
2018-06-09T02:01:24.779Z,16.81
2018-06-09T02:02:24.613Z,16.84
2018-06-09T02:03:23.977Z,16.84
2018-06-09T02:04:25.964Z,16.86
2018-06-09T02:05:25.357Z,16.86
2018-06-09T02:06:24.475Z,16.89
2018-06-09T02:07:24.242Z,16.89
2018-06-09T02:08:25.046Z,16.90
2018-06-09T02:09:24.584Z,16.93
2018-06-09T02:10:24.410Z,16.96
2018-06-09T02:11:24.740Z,16.97
2018-06-09T02:12:24.223Z,17.01
2018-06-09T02:13:45.472Z,17.04
2018-06-09T02:15:07.180Z,17.08
2018-06-09T02:16:10.925Z,17.12
2018-06-09T02:17:10.746Z,17.15
2018-06-09T02:18:07.460Z,17.19
2018-06-09T02:19:09.170Z,17.20
2018-06-09T02:20:08.016Z,17.19
2018-06-09T02:21:08.189Z,17.20
2018-06-09T02:22:08.007Z,17.19
2018-06-09T02:23:08.043Z,17.20
2018-06-09T02:24:29.577Z,17.20
2018-06-09T02:25:30.576Z,17.22
2018-06-09T02:26:30.548Z,17.22
2018-06-09T02:27:57.829Z,17.24
2018-06-09T02:28:58.556Z,17.24
2018-06-09T02:29:57.948Z,17.23
2018-06-09T02:31:00.814Z,17.24
2018-06-09T02:31:58.325Z,17.26
2018-06-09T02:32:58.114Z,17.26
2018-06-09T02:34:20.185Z,17.27
2018-06-09T02:35:20.974Z,17.29
2018-06-09T02:36:20.713Z,17.30
2018-06-09T02:37:21.472Z,17.31
2018-06-09T02:38:20.317Z,17.30
2018-06-09T02:39:21.214Z,17.33
2018-06-09T02:40:20.821Z,17.33
2018-06-09T02:41:20.659Z,17.33
2018-06-09T02:42:20.163Z,17.34
2018-06-09T02:43:41.873Z,17.36
2018-06-09T02:44:42.264Z,17.38
2018-06-09T02:45:42.840Z,17.36
2018-06-09T02:46:42.526Z,17.36
2018-06-09T02:48:03.646Z,17.36
2018-06-09T02:49:04.438Z,17.38
2018-06-09T02:50:03.914Z,17.38
2018-06-09T02:51:04.635Z,17.38
2018-06-09T02:52:04.357Z,17.36
2018-06-09T02:53:04.073Z,17.34
2018-06-09T02:54:25.617Z,17.33
2018-06-09T02:55:47.809Z,17.38
2018-06-09T02:56:48.421Z,17.38
2018-06-09T02:57:47.973Z,17.36
2018-06-09T02:59:09.674Z,17.34
2018-06-09T03:00:10.607Z,17.33
2018-06-09T03:01:10.220Z,17.33
2018-06-09T03:02:09.933Z,17.33
2018-06-09T03:03:31.965Z,17.33
2018-06-09T03:04:53.854Z,17.30
2018-06-09T03:06:15.584Z,17.31
2018-06-09T03:07:16.285Z,17.31
2018-06-09T03:08:15.985Z,17.31
2018-06-09T03:09:16.764Z,17.31
2018-06-09T03:10:37.884Z,17.33
2018-06-09T03:11:38.407Z,17.36
2018-06-09T03:12:59.599Z,17.34
2018-06-09T03:13:59.711Z,17.34
2018-06-09T03:14:59.306Z,17.33
2018-06-09T03:16:00.024Z,17.31
2018-06-09T03:16:59.602Z,17.31
2018-06-09T03:17:59.308Z,17.31
2018-06-09T03:19:00.029Z,17.31
2018-06-09T03:20:01.322Z,17.33
2018-06-09T03:20:59.758Z,17.33
2018-06-09T03:22:00.009Z,17.31
2018-06-09T03:22:59.865Z,17.29
2018-06-09T03:23:59.966Z,17.29
2018-06-09T03:24:59.716Z,17.30
2018-06-09T03:26:20.583Z,17.31
2018-06-09T03:27:21.173Z,17.33
2018-06-09T03:28:20.759Z,17.33
2018-06-09T03:29:21.720Z,17.33
2018-06-09T03:30:21.487Z,17.31
2018-06-09T03:31:21.492Z,17.36
2018-06-09T03:32:42.508Z,17.36
2018-06-09T03:33:43.279Z,17.36
2018-06-09T03:34:43.132Z,17.36
2018-06-09T03:35:43.072Z,17.38
2018-06-09T03:37:26.414Z,17.39
2018-06-09T03:38:27.151Z,17.39
2018-06-09T03:39:26.874Z,17.36
2018-06-09T03:40:26.564Z,17.36
2018-06-09T03:41:48.558Z,17.36
2018-06-09T03:42:49.129Z,17.39
2018-06-09T03:43:48.734Z,17.39
2018-06-09T03:44:49.322Z,17.38
2018-06-09T03:45:49.010Z,17.39
2018-06-09T03:46:48.717Z,17.41
2018-06-09T03:48:32.256Z,17.42
2018-06-09T03:49:34.280Z,17.42
2018-06-09T03:50:33.082Z,17.45
2018-06-09T03:51:32.614Z,17.48
2018-06-09T03:52:34.026Z,17.51
2018-06-09T03:53:32.496Z,17.52
2018-06-09T03:54:33.494Z,17.54
2018-06-09T03:55:33.397Z,17.59
2018-06-09T03:56:34.153Z,17.59
2018-06-09T03:57:33.885Z,17.63
2018-06-09T03:58:32.766Z,17.64
2018-06-09T03:59:53.567Z,17.67
2018-06-09T04:00:54.326Z,17.68
2018-06-09T04:01:54.304Z,17.70
2018-06-09T04:03:15.349Z,17.72
2018-06-09T04:04:37.244Z,17.72
2018-06-09T04:06:00.100Z,17.74
2018-06-09T04:07:01.010Z,17.76
2018-06-09T04:08:00.767Z,17.76
2018-06-09T04:09:00.365Z,17.79
2018-06-09T04:10:00.948Z,17.80
2018-06-09T04:11:00.674Z,17.79
2018-06-09T04:12:00.536Z,17.79
2018-06-09T04:13:00.086Z,17.79
2018-06-09T04:14:00.900Z,17.82
2018-06-09T04:15:00.385Z,17.85
2018-06-09T04:16:00.530Z,17.87
2018-06-09T04:17:00.118Z,17.87
2018-06-09T04:18:22.341Z,17.92
2018-06-09T04:19:44.597Z,18.00
2018-06-09T04:20:45.288Z,18.05
2018-06-09T04:21:44.943Z,18.10
2018-06-09T04:22:44.388Z,18.11
2018-06-09T04:23:45.163Z,18.15
2018-06-09T04:24:44.940Z,18.22
2018-06-09T04:25:44.332Z,18.28
2018-06-09T04:26:45.212Z,18.34
2018-06-09T04:27:44.750Z,18.43
2018-06-09T04:28:45.398Z,18.47
2018-06-09T04:29:45.401Z,18.53
2018-06-09T04:30:44.925Z,18.59
2018-06-09T04:31:44.967Z,18.60
2018-06-09T04:32:44.805Z,18.59
2018-06-09T04:33:44.724Z,18.62
2018-06-09T04:34:45.561Z,18.63
2018-06-09T04:35:45.300Z,18.65
2018-06-09T04:36:44.876Z,18.68
2018-06-09T04:37:45.177Z,18.73
2018-06-09T04:38:44.980Z,18.78
2018-06-09T04:39:44.733Z,18.80
2018-06-09T04:41:28.143Z,18.88
2018-06-09T04:42:28.851Z,18.90
2018-06-09T04:43:28.599Z,18.92
2018-06-09T04:44:28.152Z,18.99
2018-06-09T04:45:28.593Z,19.02
2018-06-09T04:46:28.521Z,19.04
2018-06-09T04:47:49.392Z,19.07
2018-06-09T04:48:49.953Z,19.07
2018-06-09T04:49:49.973Z,19.08
2018-06-09T04:50:49.981Z,19.08
2018-06-09T04:51:49.953Z,19.11
2018-06-09T04:52:49.819Z,19.12
2018-06-09T04:53:50.886Z,19.16
2018-06-09T04:54:50.937Z,19.22
2018-06-09T04:55:50.343Z,19.27
2018-06-09T04:57:15.193Z,19.36
2018-06-09T04:58:13.802Z,19.41
2018-06-09T04:59:56.624Z,19.51
2018-06-09T05:01:19.301Z,19.59
2018-06-09T05:03:03.732Z,19.76
2018-06-09T05:04:03.694Z,19.79
2018-06-09T05:05:03.601Z,19.79
2018-06-09T05:06:03.516Z,19.88
2018-06-09T05:07:04.232Z,19.95
2018-06-09T05:08:26.017Z,19.95
2018-06-09T05:09:26.648Z,19.99
2018-06-09T05:10:48.425Z,20.03
2018-06-09T05:11:48.880Z,20.07
2018-06-09T05:12:48.842Z,20.11
2018-06-09T05:13:48.357Z,20.14
2018-06-09T05:14:48.160Z,20.25
2018-06-09T05:15:47.894Z,20.47
2018-06-09T05:16:49.319Z,20.59
2018-06-09T05:17:48.408Z,20.75
2018-06-09T05:19:32.153Z,20.92
2018-06-09T05:20:33.088Z,20.93
2018-06-09T05:21:32.124Z,20.96
2018-06-09T05:22:32.185Z,21.06
2018-06-09T05:23:32.211Z,21.12
2018-06-09T05:24:32.940Z,21.24
2018-06-09T05:25:32.838Z,21.40
2018-06-09T05:26:32.741Z,21.39
2018-06-09T05:27:32.416Z,21.45
2018-06-09T05:28:32.211Z,21.51
2018-06-09T05:29:55.060Z,21.58
2018-06-09T05:30:54.889Z,21.64
2018-06-09T05:31:55.867Z,21.67
2018-06-09T05:32:55.514Z,21.67
2018-06-09T05:33:55.264Z,21.77
2018-06-09T05:34:55.064Z,21.83
2018-06-09T05:36:17.913Z,21.95
2018-06-09T05:37:18.903Z,22.06
2018-06-09T05:38:21.137Z,22.17
2018-06-09T05:39:19.279Z,22.30
2018-06-09T05:40:39.781Z,22.47
2018-06-09T05:41:40.398Z,22.55
2018-06-09T05:42:40.393Z,22.62
2018-06-09T05:43:40.252Z,22.62
2018-06-09T05:44:39.715Z,22.68
2018-06-09T05:45:40.765Z,22.65
2018-06-09T05:46:39.663Z,22.62
2018-06-09T05:47:41.278Z,22.57
2018-06-09T05:48:40.118Z,22.47
2018-06-09T05:49:39.767Z,22.47
2018-06-09T05:50:39.598Z,22.43
2018-06-09T05:51:40.565Z,22.43
2018-06-09T05:52:40.051Z,22.43
2018-06-09T05:53:41.229Z,22.38
2018-06-09T05:54:40.094Z,22.39
2018-06-09T05:55:40.180Z,22.38
2018-06-09T05:56:40.201Z,22.38
2018-06-09T05:57:40.083Z,22.44
2018-06-09T05:58:40.229Z,22.44
2018-06-09T05:59:40.578Z,22.44
2018-06-09T06:00:40.544Z,22.45
2018-06-09T06:01:40.522Z,22.51
2018-06-09T06:02:40.766Z,22.47
2018-06-09T06:03:40.490Z,22.44
2018-06-09T06:04:40.316Z,22.43
2018-06-09T06:05:40.509Z,22.38
2018-06-09T06:06:40.183Z,22.32
2018-06-09T06:07:40.209Z,22.29
2018-06-09T06:08:40.137Z,22.33
2018-06-09T06:09:39.866Z,22.38
2018-06-09T06:10:39.803Z,22.41
2018-06-09T06:11:39.694Z,22.43
2018-06-09T06:12:40.411Z,22.43
2018-06-09T06:13:41.615Z,22.43
2018-06-09T06:14:40.080Z,22.43
2018-06-09T06:15:39.770Z,22.47
2018-06-09T06:16:39.639Z,22.50
2018-06-09T06:17:40.729Z,22.47
2018-06-09T06:18:39.680Z,22.47
2018-06-09T06:19:40.519Z,22.45
2018-06-09T06:21:02.120Z,22.47
2018-06-09T06:22:03.289Z,22.57
2018-06-09T06:23:02.321Z,22.73
2018-06-09T06:24:02.602Z,22.81
2018-06-09T06:25:46.194Z,23.02
2018-06-09T06:26:46.988Z,23.09
2018-06-09T06:27:46.650Z,23.17
2018-06-09T06:28:46.333Z,23.20
2018-06-09T06:29:45.916Z,23.25
2018-06-09T06:30:47.293Z,23.39
2018-06-09T06:31:46.285Z,23.47
2018-06-09T06:32:46.737Z,23.54
2018-06-09T06:33:46.463Z,23.63
2018-06-09T06:34:46.406Z,23.68
2018-06-09T06:36:09.939Z,23.77
2018-06-09T06:37:32.705Z,23.88
2018-06-09T06:38:32.415Z,24.02
2018-06-09T06:39:32.119Z,24.10
2018-06-09T06:40:32.324Z,24.16
2018-06-09T06:41:32.446Z,24.17
2018-06-09T06:42:32.249Z,24.21
2018-06-09T06:43:53.674Z,24.30
2018-06-09T06:44:53.855Z,24.32
2018-06-09T06:45:53.607Z,24.36
2018-06-09T06:46:53.734Z,24.48
2018-06-09T06:47:53.335Z,24.58
2018-06-09T06:48:54.461Z,24.68
2018-06-09T06:49:54.405Z,24.69
2018-06-09T06:50:54.427Z,24.66
2018-06-09T06:51:54.032Z,24.68
2018-06-09T06:52:53.706Z,24.66
2018-06-09T06:54:23.195Z,24.69
2018-06-09T06:55:24.025Z,24.73
2018-06-09T06:56:23.689Z,24.80
2018-06-09T06:57:23.488Z,24.88
2018-06-09T06:58:45.134Z,25.03
2018-06-09T06:59:45.791Z,25.17
2018-06-09T07:01:08.775Z,25.36
2018-06-09T07:02:08.724Z,25.46
2018-06-09T07:03:09.941Z,25.59
2018-06-09T07:04:31.481Z,25.81
2018-06-09T07:05:31.434Z,26.26
2018-06-09T07:06:31.614Z,26.63
2018-06-09T07:07:30.653Z,27.07
2018-06-09T07:08:30.758Z,27.37
2018-06-09T07:09:30.650Z,27.85
2018-06-09T07:10:30.482Z,28.29
2018-06-09T07:11:30.480Z,28.54
2018-06-09T07:12:31.231Z,28.60
2018-06-09T07:13:31.308Z,28.52
2018-06-09T07:14:31.530Z,28.47
2018-06-09T07:15:30.440Z,28.38
2018-06-09T07:16:30.721Z,28.45
2018-06-09T07:17:30.759Z,28.47
2018-06-09T07:18:30.768Z,28.47
2018-06-09T07:19:30.805Z,28.45
2018-06-09T07:20:30.882Z,28.48
2018-06-09T07:21:30.787Z,28.56
2018-06-09T07:22:30.859Z,28.66
2018-06-09T07:23:36.181Z,28.56
2018-06-09T07:24:31.010Z,28.56
2018-06-09T07:25:31.119Z,28.47
2018-06-09T07:26:31.332Z,28.38
2018-06-09T07:27:30.520Z,28.35
2018-06-09T07:28:30.540Z,28.63
2018-06-09T07:29:30.735Z,28.94
2018-06-09T07:30:30.916Z,29.17
2018-06-09T07:31:30.772Z,29.04
2018-06-09T07:32:30.696Z,29.04
2018-06-09T07:33:30.934Z,29.17
2018-06-09T07:34:30.883Z,29.47
2018-06-09T07:35:30.913Z,29.79
2018-06-09T07:36:31.023Z,30.12
2018-06-09T07:37:30.854Z,30.40
2018-06-09T07:38:30.724Z,30.53
2018-06-09T07:39:30.705Z,30.73
2018-06-09T07:40:31.057Z,30.91
2018-06-09T07:41:37.136Z,30.94
2018-06-09T07:42:39.331Z,30.75
2018-06-09T07:43:41.698Z,30.50
2018-06-09T07:44:41.122Z,29.98
2018-06-09T07:45:41.141Z,29.69
2018-06-09T07:46:43.074Z,29.59
2018-06-09T07:48:09.211Z,29.47
2018-06-09T07:49:10.611Z,29.69
2018-06-09T07:50:08.541Z,30.02
2018-06-09T07:51:08.266Z,30.13
2018-06-09T07:52:10.332Z,30.27
2018-06-09T07:53:03.401Z,30.18
2018-06-09T07:54:09.862Z,30.00
2018-06-09T07:55:08.651Z,29.73
2018-06-09T07:56:11.474Z,29.51
2018-06-09T07:58:19.245Z,28.96
2018-06-09T07:59:07.190Z,28.60
2018-06-09T08:00:07.863Z,28.48
2018-06-09T08:01:07.490Z,28.38
2018-06-09T08:02:07.303Z,28.35
2018-06-09T08:03:07.408Z,28.14
2018-06-09T08:04:07.417Z,28.10
2018-06-09T08:05:07.437Z,28.04
2018-06-09T08:06:11.714Z,28.07
2018-06-09T08:07:08.492Z,28.10
2018-06-09T08:08:07.549Z,28.11
2018-06-09T08:09:08.885Z,28.15
2018-06-09T08:10:08.080Z,28.11
2018-06-09T08:11:07.935Z,28.04
2018-06-09T08:12:08.194Z,27.96
2018-06-09T08:13:07.996Z,27.87
2018-06-09T08:14:08.744Z,27.92
2018-06-09T08:15:07.577Z,27.93
2018-06-09T08:16:29.107Z,28.10
2018-06-09T08:17:29.744Z,28.12
2018-06-09T08:18:29.541Z,27.98
2018-06-09T08:19:30.480Z,27.89
2018-06-09T08:20:29.226Z,27.85
2018-06-09T08:21:30.013Z,27.89
2018-06-09T08:22:30.360Z,27.67
2018-06-09T08:23:29.595Z,27.48
2018-06-09T08:24:29.427Z,27.49
2018-06-09T08:25:29.585Z,27.63
2018-06-09T08:26:29.514Z,27.82
2018-06-09T08:27:29.397Z,28.02
2018-06-09T08:28:29.330Z,28.22
2018-06-09T08:29:28.976Z,28.45
2018-06-09T08:30:34.420Z,28.82
2018-06-09T08:31:29.883Z,29.13
2018-06-09T08:32:30.038Z,29.38
2018-06-09T08:33:33.965Z,29.47
2018-06-09T08:34:30.673Z,29.50
2018-06-09T08:35:29.438Z,29.56
2018-06-09T08:36:30.867Z,29.66
2018-06-09T08:37:53.319Z,29.71
2018-06-09T08:38:53.399Z,29.73
2018-06-09T08:39:53.950Z,30.03
2018-06-09T08:40:52.799Z,30.40
2018-06-09T08:41:53.853Z,30.77
2018-06-09T08:42:52.644Z,30.92
2018-06-09T08:43:53.521Z,31.09
2018-06-09T08:45:15.430Z,31.25
2018-06-09T08:46:15.634Z,31.20
2018-06-09T08:47:18.430Z,31.24
2018-06-09T08:48:19.115Z,31.37
2018-06-09T08:49:16.374Z,31.43
2018-06-09T08:50:15.371Z,31.37
2018-06-09T08:51:15.584Z,31.24
2018-06-09T08:52:15.630Z,31.33
2018-06-09T08:53:15.857Z,31.40
2018-06-09T08:54:15.980Z,31.52
2018-06-09T08:55:16.685Z,31.76
2018-06-09T08:56:15.451Z,32.01
2018-06-09T08:57:15.122Z,32.16
2018-06-09T08:58:15.776Z,32.01
2018-06-09T08:59:16.195Z,32.01
2018-06-09T09:00:15.300Z,32.19
2018-06-09T09:01:15.858Z,32.49
2018-06-09T09:02:15.537Z,32.80
2018-06-09T09:03:15.713Z,33.02
2018-06-09T09:04:15.637Z,33.31
2018-06-09T09:05:15.608Z,33.49
2018-06-09T09:06:15.180Z,33.31
2018-06-09T09:07:16.074Z,32.87
2018-06-09T09:08:18.100Z,32.52
2018-06-09T09:09:15.666Z,32.27
2018-06-09T09:10:16.668Z,31.99
2018-06-09T09:12:03.230Z,31.39
2018-06-09T09:13:02.391Z,31.25
2018-06-09T09:14:02.455Z,31.29
2018-06-09T09:15:02.474Z,31.14
2018-06-09T09:16:03.725Z,31.40
2018-06-09T09:17:01.864Z,31.61
2018-06-09T09:18:01.736Z,31.94
2018-06-09T09:19:02.504Z,32.36
2018-06-09T09:20:02.644Z,32.53
2018-06-09T09:21:02.648Z,32.83
2018-06-09T09:22:02.649Z,33.19
2018-06-09T09:23:02.800Z,33.19
2018-06-09T09:24:02.179Z,33.28
2018-06-09T09:25:02.030Z,33.43
2018-06-09T09:26:02.773Z,33.62
2018-06-09T09:27:01.900Z,33.80
2018-06-09T09:28:03.789Z,34.14
2018-06-09T09:29:01.636Z,34.36
2018-06-09T09:30:03.061Z,34.62
2018-06-09T09:31:02.402Z,34.77
2018-06-09T09:32:02.249Z,34.95
2018-06-09T09:33:02.152Z,34.74
2018-06-09T09:34:02.500Z,34.77
2018-06-09T09:35:02.601Z,34.60
2018-06-09T09:36:02.309Z,34.57
2018-06-09T09:37:24.799Z,34.85
2018-06-09T09:38:25.455Z,35.17
2018-06-09T09:39:25.221Z,35.52
2018-06-09T09:40:51.990Z,35.51
2018-06-09T09:41:52.352Z,35.41
2018-06-09T09:42:49.819Z,35.04
2018-06-09T09:43:50.284Z,34.96
2018-06-09T09:44:53.417Z,35.00
2018-06-09T09:45:50.068Z,34.74
2018-06-09T09:46:49.659Z,34.32
2018-06-09T09:47:49.903Z,34.27
2018-06-09T09:49:12.127Z,34.32
2018-06-09T09:50:12.330Z,34.42
2018-06-09T09:51:33.903Z,34.52
2018-06-09T09:52:57.805Z,34.16
2018-06-09T09:53:59.264Z,34.11
2018-06-09T09:54:57.201Z,34.25
2018-06-09T09:56:19.046Z,34.55
2018-06-09T09:57:21.180Z,34.75
2018-06-09T09:58:19.075Z,34.71
2018-06-09T09:59:20.002Z,34.70
2018-06-09T10:00:19.946Z,34.81
2018-06-09T10:01:20.010Z,34.93
2018-06-09T10:02:20.020Z,34.97
2018-06-09T10:03:19.134Z,35.11
2018-06-09T10:04:25.195Z,35.30
2018-06-09T10:05:19.004Z,35.44
2018-06-09T10:07:03.278Z,35.18
2018-06-09T10:08:04.180Z,35.58
2018-06-09T10:09:03.973Z,35.80
2018-06-09T10:10:09.420Z,35.90
2018-06-09T10:11:04.331Z,36.25
2018-06-09T10:12:04.440Z,36.57
2018-06-09T10:13:04.075Z,36.73
2018-06-09T10:14:03.846Z,36.76
2018-06-09T10:15:03.891Z,36.89
2018-06-09T10:16:05.549Z,36.91
2018-06-09T10:17:03.519Z,36.99
2018-06-09T10:18:04.127Z,37.23
2018-06-09T10:19:04.278Z,37.01
2018-06-09T10:20:04.574Z,37.06
2018-06-09T10:21:04.219Z,37.29
2018-06-09T10:22:05.689Z,37.21
2018-06-09T10:23:25.847Z,37.18
2018-06-09T10:24:47.866Z,37.25
2018-06-09T10:25:48.792Z,37.37
2018-06-09T10:26:48.560Z,37.56
2018-06-09T10:27:48.546Z,37.86
2018-06-09T10:28:48.650Z,37.93
2018-06-09T10:29:48.421Z,37.84
2018-06-09T10:30:48.287Z,38.01
2018-06-09T10:31:48.298Z,38.15
2018-06-09T10:33:32.990Z,38.33
2018-06-09T10:34:33.524Z,38.14
2018-06-09T10:35:33.891Z,38.28
2018-06-09T10:36:57.534Z,38.02
2018-06-09T10:37:55.544Z,37.65
2018-06-09T10:38:55.558Z,37.60
2018-06-09T10:39:55.741Z,37.23
2018-06-09T10:40:56.023Z,37.10
2018-06-09T10:41:56.827Z,37.13
2018-06-09T10:42:55.803Z,37.39
2018-06-09T10:43:56.451Z,37.68
2018-06-09T10:44:59.408Z,38.02
2018-06-09T10:45:55.280Z,38.36
2018-06-09T10:46:56.102Z,38.65
2018-06-09T10:47:56.465Z,38.34
2018-06-09T10:48:55.346Z,38.48
2018-06-09T10:49:55.490Z,38.61
2018-06-09T10:50:55.906Z,38.68
2018-06-09T10:51:55.773Z,38.73
2018-06-09T10:52:56.909Z,38.49
2018-06-09T10:53:55.707Z,38.43
2018-06-09T10:54:55.923Z,38.30
2018-06-09T10:55:56.857Z,38.46
2018-06-09T10:56:55.898Z,38.28
2018-06-09T10:57:56.113Z,38.24
2018-06-09T10:58:56.300Z,38.20
2018-06-09T10:59:55.589Z,38.39
2018-06-09T11:00:56.750Z,38.58
2018-06-09T11:01:56.250Z,38.71
2018-06-09T11:02:55.538Z,38.48
2018-06-09T11:03:55.926Z,38.42
2018-06-09T11:04:56.326Z,38.55
2018-06-09T11:05:55.463Z,38.67
2018-06-09T11:06:55.483Z,38.84
2018-06-09T11:07:55.607Z,38.60
2018-06-09T11:08:55.907Z,38.69
2018-06-09T11:11:01.570Z,38.92
2018-06-09T11:12:05.049Z,38.89
2018-06-09T11:13:02.318Z,38.80
2018-06-09T11:14:02.522Z,38.77
2018-06-09T11:15:01.666Z,38.67
2018-06-09T11:16:02.047Z,38.64
2018-06-09T11:17:02.263Z,38.48
2018-06-09T11:18:02.228Z,38.52
2018-06-09T11:19:02.416Z,38.04
2018-06-09T11:20:01.453Z,37.90
2018-06-09T11:21:02.310Z,38.19
2018-06-09T11:22:01.634Z,38.42
2018-06-09T11:23:25.172Z,38.26
2018-06-09T11:24:47.444Z,37.84
2018-06-09T11:25:48.550Z,37.82
2018-06-09T11:26:49.527Z,37.80
2018-06-09T11:27:50.148Z,37.49
2018-06-09T11:28:48.345Z,37.23
2018-06-09T11:29:48.945Z,37.39
2018-06-09T11:30:48.807Z,37.80
2018-06-09T11:32:11.115Z,38.26
2018-06-09T11:33:31.842Z,38.61
2018-06-09T11:34:33.489Z,38.73
2018-06-09T11:35:32.376Z,38.54
2018-06-09T11:36:55.698Z,38.19
2018-06-09T11:37:55.618Z,37.90
2018-06-09T11:38:56.106Z,37.59
2018-06-09T11:40:20.109Z,37.49
2018-06-09T11:41:20.374Z,37.74
2018-06-09T11:42:20.762Z,37.92
2018-06-09T11:43:22.586Z,38.04
2018-06-09T11:44:24.759Z,38.15
2018-06-09T11:45:20.792Z,38.36
2018-06-09T11:46:21.450Z,38.28
2018-06-09T11:47:20.365Z,38.12
2018-06-09T11:48:20.284Z,37.94
2018-06-09T11:49:41.987Z,37.90
2018-06-09T11:50:42.256Z,37.87
2018-06-09T11:51:43.425Z,37.56
2018-06-09T11:52:42.241Z,37.36
2018-06-09T11:53:42.338Z,37.29
2018-06-09T11:54:42.328Z,37.40
2018-06-09T11:55:44.567Z,37.71
2018-06-09T11:57:04.688Z,37.55
2018-06-09T11:58:05.730Z,37.39
2018-06-09T11:59:05.116Z,37.64
2018-06-09T12:00:05.687Z,37.74
2018-06-09T12:01:04.974Z,37.67
2018-06-09T12:02:28.340Z,37.65
2018-06-09T12:03:28.451Z,37.78
2018-06-09T12:04:28.698Z,37.92
2018-06-09T12:05:27.534Z,38.12
2018-06-09T12:06:27.944Z,38.45
2018-06-09T12:07:28.582Z,38.68
2018-06-09T12:08:27.520Z,38.91
2018-06-09T12:09:27.639Z,38.99
2018-06-09T12:10:27.291Z,38.82
2018-06-09T12:11:50.851Z,38.79
2018-06-09T12:12:50.899Z,39.11
2018-06-09T12:13:50.017Z,39.15
2018-06-09T12:14:50.117Z,39.12
2018-06-09T12:15:51.708Z,38.92
2018-06-09T12:16:50.834Z,39.02
2018-06-09T12:17:50.954Z,39.26
2018-06-09T12:18:49.901Z,39.41
2018-06-09T12:19:51.017Z,39.37
2018-06-09T12:21:13.092Z,39.34
2018-06-09T12:22:17.658Z,39.60
2018-06-09T12:23:12.962Z,39.90
2018-06-09T12:24:56.877Z,40.06
2018-06-09T12:25:57.536Z,40.15
2018-06-09T12:26:55.931Z,40.04
2018-06-09T12:27:56.828Z,39.74
2018-06-09T12:28:56.313Z,38.89
2018-06-09T12:30:18.612Z,38.06
2018-06-09T12:31:18.970Z,37.65
2018-06-09T12:32:40.956Z,36.45
2018-06-09T12:33:40.973Z,36.07
2018-06-09T12:34:40.952Z,35.79
2018-06-09T12:35:40.856Z,35.64
2018-06-09T12:36:41.855Z,35.51
2018-06-09T12:37:40.576Z,35.10
2018-06-09T12:38:41.620Z,34.86
2018-06-09T12:39:41.548Z,34.70
2018-06-09T12:40:41.414Z,34.47
2018-06-09T12:41:41.104Z,34.39
2018-06-09T12:42:40.835Z,34.42
2018-06-09T12:43:40.478Z,34.83
2018-06-09T12:44:41.275Z,35.17
2018-06-09T12:46:03.932Z,35.56
2018-06-09T12:47:03.764Z,35.71
2018-06-09T12:48:03.743Z,35.88
2018-06-09T12:49:26.271Z,36.21
2018-06-09T12:50:26.442Z,36.42
2018-06-09T12:51:26.551Z,36.67
2018-06-09T12:52:26.741Z,36.65
2018-06-09T12:53:47.795Z,36.81
2018-06-09T12:54:47.530Z,36.76
2018-06-09T12:56:10.001Z,36.84
2018-06-09T12:57:35.558Z,36.80
2018-06-09T12:58:34.592Z,36.89
2018-06-09T12:59:33.559Z,36.92
2018-06-09T13:00:34.757Z,36.79
2018-06-09T13:01:56.139Z,36.54
2018-06-09T13:03:18.984Z,36.28
2018-06-09T13:04:19.860Z,36.39
2018-06-09T13:05:19.020Z,36.40
2018-06-09T13:06:19.802Z,36.46
2018-06-09T13:07:41.572Z,36.40
2018-06-09T13:08:43.499Z,36.73
2018-06-09T13:09:43.803Z,36.93
2018-06-09T13:10:42.984Z,37.11
2018-06-09T13:11:41.831Z,37.07
2018-06-09T13:12:42.996Z,37.14
2018-06-09T13:13:42.037Z,37.23
2018-06-09T13:14:42.134Z,37.26
2018-06-09T13:15:41.994Z,37.42
2018-06-09T13:16:42.457Z,37.63
2018-06-09T13:18:09.525Z,37.82
2018-06-09T13:19:10.522Z,37.80
2018-06-09T13:20:31.025Z,37.72
2018-06-09T13:21:32.821Z,37.77
2018-06-09T13:22:53.922Z,37.78
2018-06-09T13:23:54.477Z,37.64
2018-06-09T13:24:57.281Z,37.47
2018-06-09T13:25:54.241Z,37.39
2018-06-09T13:26:55.007Z,37.15
2018-06-09T13:27:54.381Z,37.15
2018-06-09T13:28:54.573Z,37.15
2018-06-09T13:30:18.352Z,37.35
2018-06-09T13:31:16.345Z,37.42
2018-06-09T13:32:39.379Z,37.64
2018-06-09T13:33:39.291Z,37.51
2018-06-09T13:34:39.976Z,37.48
2018-06-09T13:35:39.093Z,37.56
2018-06-09T13:36:39.724Z,37.47
2018-06-09T13:37:39.005Z,37.42